createdAt,value
2018-05-13T00:00:18.445Z,22.53
2018-05-13T00:02:46.043Z,22.51
2018-05-13T00:05:13.705Z,22.51
2018-05-13T00:07:41.197Z,22.50
2018-05-13T00:10:08.804Z,22.48
2018-05-13T00:12:36.381Z,22.48
2018-05-13T00:15:03.938Z,22.47
2018-05-13T00:17:31.468Z,22.48
2018-05-13T00:19:59.635Z,22.45
2018-05-13T00:22:27.201Z,22.44
2018-05-13T00:24:54.825Z,22.37
2018-05-13T00:27:22.404Z,22.41
2018-05-13T00:29:50.021Z,22.39
2018-05-13T00:32:17.577Z,22.37
2018-05-13T00:34:45.165Z,22.34
2018-05-13T00:37:12.693Z,22.33
2018-05-13T00:39:40.252Z,22.31
2018-05-13T00:42:07.777Z,22.29
2018-05-13T00:44:35.309Z,22.27
2018-05-13T00:47:02.831Z,22.22
2018-05-13T00:49:30.392Z,22.18
2018-05-13T00:51:57.943Z,22.15
2018-05-13T00:54:37.185Z,22.12
2018-05-13T00:57:04.746Z,22.08
2018-05-13T00:59:32.310Z,22.05
2018-05-13T01:01:59.852Z,22.06
2018-05-13T01:04:27.403Z,22.06
2018-05-13T01:06:54.923Z,22.06
2018-05-13T01:09:22.480Z,22.03
2018-05-13T01:11:50.063Z,22.04
2018-05-13T01:14:18.547Z,22.02
2018-05-13T01:16:46.075Z,22.01
2018-05-13T01:19:13.618Z,21.99
2018-05-13T01:21:41.166Z,21.99
2018-05-13T01:24:08.737Z,21.97
2018-05-13T01:26:36.252Z,21.94
2018-05-13T01:29:03.832Z,21.91
2018-05-13T01:31:31.379Z,21.90
2018-05-13T01:33:58.894Z,21.88
2018-05-13T01:36:26.436Z,21.87
2018-05-13T01:38:53.993Z,21.80
2018-05-13T01:41:21.537Z,21.85
2018-05-13T01:43:49.108Z,21.87
2018-05-13T01:46:16.684Z,21.86
2018-05-13T01:48:44.224Z,21.86
2018-05-13T01:51:11.798Z,21.85
2018-05-13T01:53:39.310Z,21.84
2018-05-13T01:56:06.865Z,21.83
2018-05-13T01:58:34.381Z,21.83
2018-05-13T02:01:01.980Z,21.82
2018-05-13T02:03:29.501Z,21.80
2018-05-13T02:05:57.068Z,21.79
2018-05-13T02:08:24.634Z,21.78
2018-05-13T02:10:52.175Z,21.73
2018-05-13T02:13:19.696Z,21.72
2018-05-13T02:15:47.236Z,21.68
2018-05-13T02:18:14.750Z,21.67
2018-05-13T02:20:42.306Z,21.65
2018-05-13T02:23:09.839Z,21.65
2018-05-13T02:25:37.368Z,21.65
2018-05-13T02:28:04.900Z,21.62
2018-05-13T02:30:32.468Z,21.62
2018-05-13T02:32:59.975Z,21.61
2018-05-13T02:35:27.521Z,21.61
2018-05-13T02:37:55.093Z,21.60
2018-05-13T02:40:22.652Z,21.60
2018-05-13T02:42:50.204Z,21.61
2018-05-13T02:45:17.759Z,21.62
2018-05-13T02:47:45.318Z,21.61
2018-05-13T02:50:12.912Z,21.62
2018-05-13T02:52:40.492Z,21.62
2018-05-13T02:55:08.045Z,21.62
2018-05-13T02:57:35.588Z,21.60
2018-05-13T03:00:03.134Z,21.60
2018-05-13T03:02:30.717Z,21.59
2018-05-13T03:04:58.261Z,21.59
2018-05-13T03:07:25.838Z,21.62
2018-05-13T03:09:53.414Z,21.64
2018-05-13T03:12:20.964Z,21.68
2018-05-13T03:14:48.495Z,21.69
2018-05-13T03:17:16.046Z,21.70
2018-05-13T03:19:43.624Z,21.71
2018-05-13T03:22:11.252Z,21.73
2018-05-13T03:24:38.845Z,21.76
2018-05-13T03:27:06.477Z,21.79
2018-05-13T03:29:34.053Z,21.80
2018-05-13T03:32:01.681Z,21.79
2018-05-13T03:34:29.254Z,21.76
2018-05-13T03:36:56.820Z,21.76
2018-05-13T03:39:24.398Z,21.75
2018-05-13T03:41:52.001Z,21.73
2018-05-13T03:44:19.535Z,21.69
2018-05-13T03:46:47.092Z,21.66
2018-05-13T03:49:14.604Z,21.64
2018-05-13T03:51:42.141Z,21.65
2018-05-13T03:54:09.706Z,21.69
2018-05-13T03:56:37.290Z,21.71
2018-05-13T03:59:04.840Z,21.72
2018-05-13T04:01:32.424Z,21.78
2018-05-13T04:03:59.972Z,21.82
2018-05-13T04:06:27.548Z,21.85
2018-05-13T04:09:06.862Z,21.89
2018-05-13T04:14:54.175Z,21.90
2018-05-13T04:17:21.709Z,21.94
2018-05-13T04:19:49.252Z,22.01
2018-05-13T04:22:16.798Z,22.03
2018-05-13T04:24:44.351Z,22.17
2018-05-13T04:27:11.890Z,22.24
2018-05-13T04:29:39.431Z,22.32
2018-05-13T04:32:06.990Z,22.39
2018-05-13T04:34:34.533Z,22.44
2018-05-13T04:37:02.043Z,22.46
2018-05-13T04:39:30.406Z,22.46
2018-05-13T04:41:57.953Z,22.48
2018-05-13T04:44:25.518Z,22.53
2018-05-13T04:46:53.164Z,22.56
2018-05-13T04:49:20.736Z,22.58
2018-05-13T04:51:48.303Z,22.58
2018-05-13T04:54:15.856Z,22.61
2018-05-13T04:56:43.388Z,22.63
2018-05-13T04:59:10.926Z,22.65
2018-05-13T05:01:38.474Z,22.68
2018-05-13T05:04:06.068Z,22.69
2018-05-13T05:06:34.046Z,22.71
2018-05-13T05:09:01.646Z,22.73
2018-05-13T05:11:29.167Z,22.72
2018-05-13T05:13:56.731Z,22.71
2018-05-13T05:16:24.317Z,22.74
2018-05-13T05:18:51.852Z,22.81
2018-05-13T05:21:19.401Z,22.93
2018-05-13T05:23:46.989Z,23.01
2018-05-13T05:26:14.537Z,23.09
2018-05-13T05:28:42.118Z,23.16
2018-05-13T05:31:09.636Z,23.26
2018-05-13T05:33:37.205Z,23.35
2018-05-13T05:36:04.773Z,23.37
2018-05-13T05:38:32.324Z,23.38
2018-05-13T05:40:59.876Z,23.39
2018-05-13T05:43:27.473Z,23.43
2018-05-13T05:45:55.008Z,23.47
2018-05-13T05:48:22.574Z,23.54
2018-05-13T05:50:50.156Z,23.63
2018-05-13T05:53:17.678Z,23.72
2018-05-13T05:55:45.280Z,23.82
2018-05-13T05:58:12.808Z,23.92
2018-05-13T06:00:40.376Z,24.01
2018-05-13T06:03:07.979Z,24.12
2018-05-13T06:05:36.156Z,24.26
2018-05-13T06:08:03.730Z,24.46
2018-05-13T06:10:31.337Z,24.68
2018-05-13T06:12:58.904Z,24.81
2018-05-13T06:15:26.479Z,24.93
2018-05-13T06:17:54.035Z,25.02
2018-05-13T06:20:21.621Z,25.12
2018-05-13T06:22:49.153Z,25.20
2018-05-13T06:25:16.782Z,25.30
2018-05-13T06:27:44.324Z,25.41
2018-05-13T06:30:11.863Z,25.52
2018-05-13T06:32:40.059Z,25.60
2018-05-13T06:35:07.633Z,25.63
2018-05-13T06:37:35.238Z,25.66
2018-05-13T06:40:02.806Z,25.68
2018-05-13T06:42:30.383Z,25.68
2018-05-13T06:44:57.964Z,25.70
2018-05-13T06:47:25.568Z,25.68
2018-05-13T06:49:53.725Z,25.74
2018-05-13T06:52:21.300Z,26.30
2018-05-13T06:54:52.185Z,27.02
2018-05-13T06:57:19.817Z,27.63
2018-05-13T06:59:47.372Z,28.02
2018-05-13T07:02:15.003Z,28.46
2018-05-13T07:04:42.589Z,29.00
2018-05-13T07:07:10.173Z,29.43
2018-05-13T07:09:37.752Z,29.84
2018-05-13T07:12:05.368Z,30.27
2018-05-13T07:14:32.940Z,30.66
2018-05-13T07:17:00.724Z,30.99
2018-05-13T07:19:28.332Z,31.26
2018-05-13T07:21:55.903Z,31.44
2018-05-13T07:24:23.471Z,31.40
2018-05-13T07:26:51.037Z,31.27
2018-05-13T07:29:18.710Z,31.13
2018-05-13T07:31:46.271Z,30.93
2018-05-13T07:34:13.812Z,30.71
2018-05-13T07:36:41.359Z,30.52
2018-05-13T07:39:08.935Z,30.34
2018-05-13T07:41:36.487Z,30.18
2018-05-13T07:44:04.035Z,30.11
2018-05-13T07:46:31.587Z,30.11
2018-05-13T07:48:59.148Z,30.03
2018-05-13T07:51:26.756Z,29.94
2018-05-13T07:53:54.322Z,29.95
2018-05-13T07:56:21.937Z,30.02
2018-05-13T07:58:49.484Z,30.06
2018-05-13T08:01:17.068Z,30.15
2018-05-13T08:03:44.663Z,30.16
2018-05-13T08:06:12.360Z,30.23
2018-05-13T08:08:39.911Z,30.26
2018-05-13T08:11:07.572Z,30.05
2018-05-13T08:13:35.299Z,29.75
2018-05-13T08:16:02.841Z,29.43
2018-05-13T08:18:30.375Z,29.03
2018-05-13T08:20:57.962Z,28.71
2018-05-13T08:23:25.526Z,28.37
2018-05-13T08:25:53.206Z,28.02
2018-05-13T08:28:20.781Z,27.69
2018-05-13T08:30:48.423Z,27.40
2018-05-13T08:33:16.414Z,27.10
2018-05-13T08:35:43.993Z,26.86
2018-05-13T08:38:11.559Z,26.68
2018-05-13T08:40:39.116Z,26.43
2018-05-13T08:43:06.740Z,26.39
2018-05-13T08:45:34.380Z,26.30
2018-05-13T08:48:01.997Z,26.27
2018-05-13T08:50:29.579Z,26.32
2018-05-13T08:52:57.157Z,26.25
2018-05-13T08:55:24.745Z,26.29
2018-05-13T08:57:52.343Z,26.27
2018-05-13T09:00:19.970Z,26.32
2018-05-13T09:02:47.546Z,26.40
2018-05-13T09:05:15.132Z,26.53
2018-05-13T09:07:42.700Z,26.77
2018-05-13T09:10:10.622Z,27.07
2018-05-13T09:12:38.225Z,27.21
2018-05-13T09:15:05.775Z,27.41
2018-05-13T09:17:33.327Z,27.68
2018-05-13T09:20:01.149Z,27.81
2018-05-13T09:22:28.694Z,27.89
2018-05-13T09:24:56.340Z,27.83
2018-05-13T09:27:23.931Z,27.66
2018-05-13T09:29:51.487Z,27.48
2018-05-13T09:32:19.046Z,27.23
2018-05-13T09:34:46.598Z,26.97
2018-05-13T09:37:14.165Z,26.73
2018-05-13T09:39:41.685Z,26.51
2018-05-13T09:42:09.232Z,26.28
2018-05-13T09:44:36.806Z,26.06
2018-05-13T09:47:04.414Z,25.88
2018-05-13T09:49:31.944Z,25.70
2018-05-13T09:51:59.555Z,25.53
2018-05-13T09:54:27.089Z,25.31
2018-05-13T09:56:54.821Z,25.22
2018-05-13T09:59:24.449Z,25.08
2018-05-13T10:01:52.014Z,24.91
2018-05-13T10:04:19.620Z,24.75
2018-05-13T10:06:47.169Z,24.60
2018-05-13T10:09:14.755Z,24.50
2018-05-13T10:11:42.383Z,24.42
2018-05-13T10:14:09.957Z,24.41
2018-05-13T10:16:37.504Z,24.30
2018-05-13T10:19:05.089Z,24.18
2018-05-13T10:21:32.633Z,24.00
2018-05-13T10:24:00.232Z,23.82
2018-05-13T10:26:27.799Z,23.71
2018-05-13T10:28:55.359Z,23.64
2018-05-13T10:31:22.926Z,23.63
2018-05-13T10:33:51.463Z,23.56
2018-05-13T10:36:19.073Z,23.51
2018-05-13T10:38:46.575Z,23.47
2018-05-13T10:41:14.183Z,23.40
2018-05-13T10:43:41.754Z,23.22
2018-05-13T10:46:09.388Z,23.19
2018-05-13T10:48:36.976Z,23.13
2018-05-13T10:51:04.519Z,23.05
2018-05-13T10:53:32.118Z,23.00
2018-05-13T10:55:59.659Z,22.93
2018-05-13T10:58:27.213Z,22.86
2018-05-13T11:00:54.745Z,22.80
2018-05-13T11:03:22.274Z,22.76
2018-05-13T11:05:49.811Z,22.74
2018-05-13T11:08:17.381Z,22.71
2018-05-13T11:10:44.956Z,22.68
2018-05-13T11:13:12.484Z,22.59
2018-05-13T11:15:40.016Z,22.62
2018-05-13T11:18:08.459Z,22.56
2018-05-13T11:20:36.107Z,22.45
2018-05-13T11:23:03.565Z,22.38
2018-05-13T11:25:31.119Z,22.30
2018-05-13T11:27:58.682Z,22.13
2018-05-13T11:30:26.231Z,22.15
2018-05-13T11:32:53.755Z,22.15
2018-05-13T11:35:21.731Z,22.14
2018-05-13T11:37:49.290Z,22.13
2018-05-13T11:40:16.849Z,22.09
2018-05-13T11:42:44.445Z,22.09
2018-05-13T11:45:11.988Z,22.04
2018-05-13T11:47:39.531Z,22.01
2018-05-13T11:50:07.154Z,22.01
2018-05-13T11:52:34.692Z,22.01
2018-05-13T11:55:02.275Z,22.06
2018-05-13T11:57:29.828Z,22.10
2018-05-13T11:59:57.387Z,22.08
2018-05-13T12:02:24.955Z,22.23
2018-05-13T12:04:52.496Z,22.33
2018-05-13T12:07:20.040Z,22.39
2018-05-13T12:09:47.614Z,22.42
2018-05-13T12:12:15.156Z,22.42
2018-05-13T12:14:42.726Z,22.45
2018-05-13T12:17:10.278Z,22.49
2018-05-13T12:19:37.832Z,22.55
2018-05-13T12:22:05.379Z,22.64
2018-05-13T12:24:32.943Z,22.69
2018-05-13T12:27:00.569Z,22.74
2018-05-13T12:29:28.150Z,22.78
2018-05-13T12:31:55.755Z,22.80
2018-05-13T12:34:23.343Z,22.79
2018-05-13T12:36:50.874Z,22.80
2018-05-13T12:39:18.451Z,22.83
2018-05-13T12:41:45.997Z,22.83
2018-05-13T12:44:13.612Z,22.81
2018-05-13T12:46:41.164Z,22.80
2018-05-13T12:49:08.717Z,22.77
2018-05-13T12:51:36.345Z,22.77
2018-05-13T12:54:03.914Z,22.74
2018-05-13T12:56:31.494Z,22.71
2018-05-13T12:58:59.106Z,22.67
2018-05-13T13:01:26.708Z,22.61
2018-05-13T13:03:54.335Z,22.52
2018-05-13T13:06:21.870Z,22.43
2018-05-13T13:08:49.428Z,22.38
2018-05-13T13:11:16.977Z,22.32
2018-05-13T13:13:44.549Z,22.27
2018-05-13T13:16:12.140Z,22.22
2018-05-13T13:18:39.710Z,22.17
2018-05-13T13:21:07.264Z,22.18
2018-05-13T13:23:34.833Z,22.16
2018-05-13T13:26:02.495Z,22.12
2018-05-13T13:28:30.071Z,22.05
2018-05-13T13:30:57.659Z,22.03
2018-05-13T13:33:25.180Z,22.03
2018-05-13T13:35:52.792Z,21.99
2018-05-13T13:38:20.350Z,21.98
2018-05-13T13:40:47.949Z,21.96
2018-05-13T13:43:15.541Z,21.91
2018-05-13T13:45:43.118Z,21.86
2018-05-13T13:48:10.712Z,21.85
2018-05-13T13:50:38.274Z,21.88
2018-05-13T13:53:05.829Z,21.95
2018-05-13T13:55:33.421Z,22.02
2018-05-13T13:58:01.064Z,22.09
2018-05-13T14:00:28.679Z,22.17
2018-05-13T14:02:56.251Z,22.27
2018-05-13T14:05:24.723Z,22.29
2018-05-13T14:07:52.293Z,22.46
2018-05-13T14:10:19.969Z,22.49
2018-05-13T14:12:47.624Z,22.47
2018-05-13T14:15:15.279Z,22.44
2018-05-13T14:17:42.892Z,22.40
2018-05-13T14:20:10.496Z,22.39
2018-05-13T14:22:38.033Z,22.35
2018-05-13T14:25:05.607Z,22.37
2018-05-13T14:27:33.180Z,22.36
2018-05-13T14:30:00.815Z,22.31
2018-05-13T14:32:28.684Z,22.27
2018-05-13T14:34:56.546Z,22.30
2018-05-13T14:37:24.184Z,22.29
2018-05-13T14:39:51.812Z,22.35
2018-05-13T14:42:19.545Z,22.48
2018-05-13T14:44:47.124Z,22.66
2018-05-13T14:47:14.729Z,22.82
2018-05-13T14:49:42.379Z,22.95
2018-05-13T14:52:09.976Z,23.05
2018-05-13T14:54:37.772Z,23.13
2018-05-13T14:57:05.436Z,23.15
2018-05-13T14:59:33.865Z,23.15
2018-05-13T15:02:01.425Z,23.17
2018-05-13T15:04:29.029Z,23.06
2018-05-13T15:06:56.596Z,23.00
2018-05-13T15:09:25.264Z,22.96
2018-05-13T15:11:51.742Z,22.85
2018-05-13T15:14:19.332Z,22.81
2018-05-13T15:16:46.977Z,22.80
2018-05-13T15:19:14.547Z,22.78
2018-05-13T15:21:42.154Z,22.76
2018-05-13T15:24:09.745Z,22.73
2018-05-13T15:26:37.383Z,22.69
2018-05-13T15:29:05.011Z,22.65
2018-05-13T15:31:32.554Z,22.58
2018-05-13T15:34:00.153Z,22.51
2018-05-13T15:36:28.276Z,22.47
2018-05-13T15:38:55.858Z,22.46
2018-05-13T15:41:23.390Z,22.47
2018-05-13T15:43:50.994Z,22.41
2018-05-13T15:46:18.600Z,22.43
2018-05-13T15:48:46.187Z,22.36
2018-05-13T15:51:13.800Z,22.33
2018-05-13T15:53:41.449Z,22.28
2018-05-13T15:56:09.019Z,22.27
2018-05-13T15:58:36.634Z,22.25
2018-05-13T16:01:04.176Z,22.25
2018-05-13T16:03:31.803Z,22.22
2018-05-13T16:05:59.426Z,22.20
2018-05-13T16:08:27.099Z,22.18
2018-05-13T16:10:54.807Z,22.19
2018-05-13T16:13:22.387Z,22.21
2018-05-13T16:15:49.973Z,22.21
2018-05-13T16:18:17.572Z,22.13
2018-05-13T16:20:45.278Z,22.10
2018-05-13T16:23:12.864Z,22.07
2018-05-13T16:25:40.415Z,22.05
2018-05-13T16:28:08.031Z,22.03
2018-05-13T16:30:35.625Z,22.01
2018-05-13T16:33:03.185Z,21.97
2018-05-13T16:35:30.813Z,21.95
2018-05-13T16:37:58.404Z,21.89
2018-05-13T16:40:26.135Z,21.84
2018-05-13T16:42:55.285Z,21.78
2018-05-13T16:45:22.884Z,21.75
2018-05-13T16:47:50.519Z,21.74
2018-05-13T16:50:18.310Z,21.71
2018-05-13T16:52:45.968Z,21.70
2018-05-13T16:55:13.528Z,21.68
2018-05-13T16:57:41.164Z,21.65
2018-05-13T17:00:08.886Z,21.69
2018-05-13T17:02:36.616Z,21.69
2018-05-13T17:05:04.270Z,21.69
2018-05-13T17:07:31.949Z,21.68
2018-05-13T17:09:59.588Z,21.70
2018-05-13T17:12:27.181Z,21.70
2018-05-13T17:14:54.825Z,21.71
2018-05-13T17:17:22.455Z,21.71
2018-05-13T17:19:49.987Z,21.71
2018-05-13T17:22:17.605Z,21.69
2018-05-13T17:24:45.476Z,21.67
2018-05-13T17:27:13.112Z,21.68
2018-05-13T17:29:40.721Z,21.63
2018-05-13T17:32:08.307Z,21.68
2018-05-13T17:34:35.899Z,21.66
2018-05-13T17:37:03.479Z,21.62
2018-05-13T17:39:31.091Z,21.58
2018-05-13T17:41:58.662Z,21.60
2018-05-13T17:44:26.366Z,21.59
2018-05-13T17:46:54.225Z,21.59
2018-05-13T17:49:21.880Z,21.60
2018-05-13T17:51:57.011Z,21.61
2018-05-13T17:54:25.497Z,21.12
2018-05-13T17:56:53.152Z,21.58
2018-05-13T17:59:20.817Z,21.56
2018-05-13T18:01:48.490Z,21.54
2018-05-13T18:04:16.097Z,21.54
2018-05-13T18:06:43.819Z,21.53
2018-05-13T18:09:11.517Z,21.52
2018-05-13T18:11:39.487Z,21.51
2018-05-13T18:14:07.125Z,21.50
2018-05-13T18:16:34.692Z,21.48
2018-05-13T18:19:02.281Z,21.47
2018-05-13T18:21:29.957Z,21.47
2018-05-13T18:23:57.510Z,21.46
2018-05-13T18:26:25.304Z,21.45
2018-05-13T18:28:52.998Z,21.45
2018-05-13T18:31:20.654Z,21.44
2018-05-13T18:33:48.585Z,21.40
2018-05-13T18:36:16.903Z,21.37
2018-05-13T18:38:44.762Z,21.30
2018-05-13T18:41:12.659Z,21.24
2018-05-13T18:43:41.143Z,21.21
2018-05-13T18:46:08.901Z,21.22
2018-05-13T18:48:36.541Z,21.22
2018-05-13T18:51:04.367Z,21.22
2018-05-13T18:53:32.057Z,21.22
2018-05-13T18:55:59.720Z,21.19
2018-05-13T18:58:27.640Z,21.15
2018-05-13T19:00:55.378Z,21.13
2018-05-13T19:03:23.025Z,21.14
2018-05-13T19:05:50.718Z,21.15
2018-05-13T19:08:18.559Z,21.16
2018-05-13T19:10:46.188Z,21.14
2018-05-13T19:13:13.793Z,21.13
2018-05-13T19:15:41.372Z,21.09
2018-05-13T19:18:08.921Z,21.08
2018-05-13T19:20:36.490Z,21.05
2018-05-13T19:23:04.087Z,21.06
2018-05-13T19:25:31.662Z,21.05
2018-05-13T19:27:59.216Z,21.05
2018-05-13T19:30:26.877Z,21.03
2018-05-13T19:32:54.364Z,20.97
2018-05-13T19:35:22.075Z,20.95
2018-05-13T19:37:49.618Z,20.94
2018-05-13T19:40:17.219Z,20.90
2018-05-13T19:42:44.762Z,20.82
2018-05-13T19:45:12.320Z,20.88
2018-05-13T19:47:39.867Z,20.87
2018-05-13T19:50:07.442Z,20.88
2018-05-13T19:52:35.032Z,20.90
2018-05-13T19:55:09.052Z,20.89
2018-05-13T19:57:36.662Z,20.88
2018-05-13T20:00:04.257Z,20.89
2018-05-13T20:02:31.917Z,20.88
2018-05-13T20:04:59.561Z,20.89
2018-05-13T20:07:27.157Z,20.87
2018-05-13T20:09:55.555Z,20.85
2018-05-13T20:12:23.274Z,20.83
2018-05-13T20:14:50.967Z,20.81
2018-05-13T20:17:18.676Z,20.80
2018-05-13T20:19:46.292Z,20.79
2018-05-13T20:22:14.074Z,20.79
2018-05-13T20:24:41.667Z,20.79
2018-05-13T20:27:09.314Z,20.78
2018-05-13T20:29:37.014Z,20.75
2018-05-13T20:32:04.696Z,20.75
2018-05-13T20:34:33.289Z,20.72
2018-05-13T20:37:01.051Z,20.70
2018-05-13T20:39:28.675Z,20.74
2018-05-13T20:41:56.315Z,20.68
2018-05-13T20:44:24.110Z,20.67
2018-05-13T20:46:51.601Z,20.60
2018-05-13T20:49:19.161Z,20.52
2018-05-13T20:51:46.849Z,20.51
2018-05-13T20:54:14.961Z,20.49
2018-05-13T20:56:42.535Z,20.43
2018-05-13T20:59:10.121Z,20.45
2018-05-13T21:01:37.669Z,20.46
2018-05-13T21:04:05.259Z,20.48
2018-05-13T21:06:32.833Z,20.51
2018-05-13T21:09:00.429Z,20.50
2018-05-13T21:11:27.981Z,20.51
2018-05-13T21:13:55.557Z,20.51
2018-05-13T21:16:23.116Z,20.50
2018-05-13T21:18:50.706Z,20.50
2018-05-13T21:21:18.305Z,20.53
2018-05-13T21:23:45.881Z,20.56
2018-05-13T21:26:13.477Z,20.56
2018-05-13T21:28:41.082Z,20.55
2018-05-13T21:31:08.653Z,20.51
2018-05-13T21:33:36.263Z,20.50
2018-05-13T21:36:03.864Z,20.48
2018-05-13T21:38:31.546Z,20.47
2018-05-13T21:40:59.126Z,20.44
2018-05-13T21:43:26.701Z,20.43
2018-05-13T21:45:54.391Z,20.40
2018-05-13T21:48:22.017Z,20.40
2018-05-13T21:50:49.635Z,20.42
2018-05-13T21:53:17.238Z,20.41
2018-05-13T21:55:44.817Z,20.39
2018-05-13T21:58:12.417Z,20.38
2018-05-13T22:00:39.982Z,20.37
2018-05-13T22:03:07.564Z,20.32
2018-05-13T22:05:35.135Z,20.31
2018-05-13T22:08:02.718Z,20.30
2018-05-13T22:10:30.245Z,20.31
2018-05-13T22:12:58.808Z,20.31
2018-05-13T22:15:26.347Z,20.29
2018-05-13T22:17:53.899Z,20.27
2018-05-13T22:20:21.419Z,20.25
2018-05-13T22:22:48.978Z,20.21
2018-05-13T22:25:16.516Z,20.18
2018-05-13T22:27:44.067Z,20.18
2018-05-13T22:30:11.665Z,20.17
2018-05-13T22:32:39.241Z,20.18
2018-05-13T22:35:06.801Z,20.19
2018-05-13T22:37:34.414Z,20.16
2018-05-13T22:40:02.028Z,20.14
2018-05-13T22:42:29.573Z,20.09
2018-05-13T22:44:57.232Z,20.04
2018-05-13T22:47:24.794Z,20.01
2018-05-13T22:49:52.369Z,19.98
2018-05-13T22:52:20.079Z,19.95
2018-05-13T22:54:47.688Z,19.91
2018-05-13T22:57:15.261Z,19.89
2018-05-13T22:59:42.857Z,19.86
2018-05-13T23:02:10.393Z,19.85
2018-05-13T23:04:38.064Z,19.84
2018-05-13T23:07:05.643Z,19.82
2018-05-13T23:09:33.231Z,19.85
2018-05-13T23:12:00.786Z,19.85
2018-05-13T23:14:28.385Z,19.77
2018-05-13T23:16:55.954Z,19.77
2018-05-13T23:19:23.553Z,19.78
2018-05-13T23:21:51.092Z,19.77
2018-05-13T23:24:18.678Z,19.74
2018-05-13T23:26:46.218Z,19.74
2018-05-13T23:29:13.793Z,19.70
2018-05-13T23:31:41.340Z,19.71
2018-05-13T23:34:08.936Z,19.71
2018-05-13T23:36:36.466Z,19.71
2018-05-13T23:39:04.027Z,19.72
2018-05-13T23:41:31.588Z,19.71
2018-05-13T23:43:59.123Z,19.69
2018-05-13T23:46:26.721Z,19.68
2018-05-13T23:48:54.272Z,19.66
2018-05-13T23:51:21.864Z,19.69
2018-05-13T23:53:49.423Z,19.69
2018-05-13T23:56:17.044Z,19.70
2018-05-13T23:58:44.613Z,19.66
